sensor_id;sensor_type;location;lat;lon;timestamp;pressure;altitude;pressure_sealevel;temperature
20058;BMP180;10189;49.546;7.906;2022-08-19T00:01:52;97786.00;;;20.90
20058;BMP180;10189;49.546;7.906;2022-08-19T00:04:26;97793.00;;;20.90
20058;BMP180;10189;49.546;7.906;2022-08-19T00:06:53;97782.00;;;20.90
20058;BMP180;10189;49.546;7.906;2022-08-19T00:09:23;97792.00;;;21.00
20058;BMP180;10189;49.546;7.906;2022-08-19T00:11:50;97796.00;;;21.00
20058;BMP180;10189;49.546;7.906;2022-08-19T00:14:17;97787.00;;;21.00
20058;BMP180;10189;49.546;7.906;2022-08-19T00:16:46;97793.00;;;21.00
20058;BMP180;10189;49.546;7.906;2022-08-19T00:19:15;97792.00;;;21.00
20058;BMP180;10189;49.546;7.906;2022-08-19T00:21:41;97774.00;;;21.00
20058;BMP180;10189;49.546;7.906;2022-08-19T00:24:10;97769.00;;;21.10
20058;BMP180;10189;49.546;7.906;2022-08-19T00:26:37;97768.00;;;21.00
20058;BMP180;10189;49.546;7.906;2022-08-19T00:29:06;97772.00;;;20.90
20058;BMP180;10189;49.546;7.906;2022-08-19T00:31:33;97774.00;;;20.90
20058;BMP180;10189;49.546;7.906;2022-08-19T00:33:59;97777.00;;;20.90
20058;BMP180;10189;49.546;7.906;2022-08-19T00:36:25;97778.00;;;20.90
20058;BMP180;10189;49.546;7.906;2022-08-19T00:38:51;97785.00;;;20.80
20058;BMP180;10189;49.546;7.906;2022-08-19T00:41:20;97780.00;;;20.70
20058;BMP180;10189;49.546;7.906;2022-08-19T00:44:10;97786.00;;;20.70
20058;BMP180;10189;49.546;7.906;2022-08-19T00:46:41;97767.00;;;20.60
20058;BMP180;10189;49.546;7.906;2022-08-19T00:49:33;97769.00;;;20.60
20058;BMP180;10189;49.546;7.906;2022-08-19T00:52:27;97756.00;;;20.70
20058;BMP180;10189;49.546;7.906;2022-08-19T00:54:56;97759.00;;;20.70
20058;BMP180;10189;49.546;7.906;2022-08-19T00:57:38;97750.00;;;20.70
20058;BMP180;10189;49.546;7.906;2022-08-19T01:00:14;97756.00;;;20.80
20058;BMP180;10189;49.546;7.906;2022-08-19T01:02:42;97753.00;;;20.90
20058;BMP180;10189;49.546;7.906;2022-08-19T01:05:14;97759.00;;;20.80
20058;BMP180;10189;49.546;7.906;2022-08-19T01:07:41;97746.00;;;20.90
20058;BMP180;10189;49.546;7.906;2022-08-19T01:10:13;97758.00;;;20.90
20058;BMP180;10189;49.546;7.906;2022-08-19T01:12:40;97756.00;;;20.90
20058;BMP180;10189;49.546;7.906;2022-08-19T01:15:10;97743.00;;;21.00
20058;BMP180;10189;49.546;7.906;2022-08-19T01:17:38;97746.00;;;20.90
20058;BMP180;10189;49.546;7.906;2022-08-19T01:20:08;97739.00;;;20.90
20058;BMP180;10189;49.546;7.906;2022-08-19T01:22:45;97735.00;;;20.90
20058;BMP180;10189;49.546;7.906;2022-08-19T01:25:15;97738.00;;;20.90
20058;BMP180;10189;49.546;7.906;2022-08-19T01:27:45;97746.00;;;20.90
20058;BMP180;10189;49.546;7.906;2022-08-19T01:30:21;97747.00;;;20.80
20058;BMP180;10189;49.546;7.906;2022-08-19T01:32:50;97768.00;;;20.70
20058;BMP180;10189;49.546;7.906;2022-08-19T01:35:16;97766.00;;;20.70
20058;BMP180;10189;49.546;7.906;2022-08-19T01:38:10;97769.00;;;20.60
20058;BMP180;10189;49.546;7.906;2022-08-19T01:40:44;97761.00;;;20.60
20058;BMP180;10189;49.546;7.906;2022-08-19T01:43:10;97750.00;;;20.50
20058;BMP180;10189;49.546;7.906;2022-08-19T01:45:37;97747.00;;;20.50
20058;BMP180;10189;49.546;7.906;2022-08-19T01:48:06;97747.00;;;20.40
20058;BMP180;10189;49.546;7.906;2022-08-19T01:50:34;97747.00;;;20.40
20058;BMP180;10189;49.546;7.906;2022-08-19T01:53:04;97768.00;;;20.30
20058;BMP180;10189;49.546;7.906;2022-08-19T01:55:30;97762.00;;;20.30
20058;BMP180;10189;49.546;7.906;2022-08-19T01:58:00;97767.00;;;20.30
20058;BMP180;10189;49.546;7.906;2022-08-19T02:00:31;97767.00;;;20.30
20058;BMP180;10189;49.546;7.906;2022-08-19T02:02:57;97769.00;;;20.20
20058;BMP180;10189;49.546;7.906;2022-08-19T02:05:24;97781.00;;;20.10
20058;BMP180;10189;49.546;7.906;2022-08-19T02:07:50;97775.00;;;20.10
20058;BMP180;10189;49.546;7.906;2022-08-19T02:10:20;97767.00;;;20.00
20058;BMP180;10189;49.546;7.906;2022-08-19T02:12:47;97775.00;;;20.00
20058;BMP180;10189;49.546;7.906;2022-08-19T02:15:16;97778.00;;;20.00
20058;BMP180;10189;49.546;7.906;2022-08-19T02:17:42;97776.00;;;20.00
20058;BMP180;10189;49.546;7.906;2022-08-19T02:20:09;97778.00;;;20.10
20058;BMP180;10189;49.546;7.906;2022-08-19T02:22:35;97770.00;;;20.00
20058;BMP180;10189;49.546;7.906;2022-08-19T02:25:02;97773.00;;;20.10
20058;BMP180;10189;49.546;7.906;2022-08-19T02:27:29;97769.00;;;20.20
20058;BMP180;10189;49.546;7.906;2022-08-19T02:29:56;97780.00;;;20.10
20058;BMP180;10189;49.546;7.906;2022-08-19T02:32:22;97770.00;;;20.10
20058;BMP180;10189;49.546;7.906;2022-08-19T02:34:48;97778.00;;;20.10
20058;BMP180;10189;49.546;7.906;2022-08-19T02:37:14;97776.00;;;20.10
20058;BMP180;10189;49.546;7.906;2022-08-19T02:39:59;97772.00;;;20.20
20058;BMP180;10189;49.546;7.906;2022-08-19T02:42:25;97772.00;;;20.10
20058;BMP180;10189;49.546;7.906;2022-08-19T02:44:51;97784.00;;;20.10
20058;BMP180;10189;49.546;7.906;2022-08-19T02:47:18;97778.00;;;20.00
20058;BMP180;10189;49.546;7.906;2022-08-19T02:49:45;97781.00;;;20.00
20058;BMP180;10189;49.546;7.906;2022-08-19T02:52:11;97776.00;;;20.10
20058;BMP180;10189;49.546;7.906;2022-08-19T02:54:38;97776.00;;;20.20
20058;BMP180;10189;49.546;7.906;2022-08-19T02:57:05;97784.00;;;20.10
20058;BMP180;10189;49.546;7.906;2022-08-19T02:59:32;97782.00;;;20.10
20058;BMP180;10189;49.546;7.906;2022-08-19T03:01:58;97774.00;;;20.20
20058;BMP180;10189;49.546;7.906;2022-08-19T03:04:25;97773.00;;;20.20
20058;BMP180;10189;49.546;7.906;2022-08-19T03:06:51;97769.00;;;20.20
20058;BMP180;10189;49.546;7.906;2022-08-19T03:09:19;97762.00;;;20.20
20058;BMP180;10189;49.546;7.906;2022-08-19T03:11:46;97769.00;;;20.20
20058;BMP180;10189;49.546;7.906;2022-08-19T03:14:12;97756.00;;;20.10
20058;BMP180;10189;49.546;7.906;2022-08-19T03:16:46;97771.00;;;20.10
20058;BMP180;10189;49.546;7.906;2022-08-19T03:19:15;97761.00;;;20.20
20058;BMP180;10189;49.546;7.906;2022-08-19T03:21:43;97762.00;;;20.10
20058;BMP180;10189;49.546;7.906;2022-08-19T03:24:11;97766.00;;;20.00
20058;BMP180;10189;49.546;7.906;2022-08-19T03:26:46;97770.00;;;20.00
20058;BMP180;10189;49.546;7.906;2022-08-19T03:29:14;97771.00;;;19.90
20058;BMP180;10189;49.546;7.906;2022-08-19T03:31:43;97778.00;;;19.90
20058;BMP180;10189;49.546;7.906;2022-08-19T03:34:19;97781.00;;;19.80
20058;BMP180;10189;49.546;7.906;2022-08-19T03:36:45;97785.00;;;19.80
20058;BMP180;10189;49.546;7.906;2022-08-19T03:39:12;97789.00;;;19.80
20058;BMP180;10189;49.546;7.906;2022-08-19T03:41:41;97794.00;;;19.80
20058;BMP180;10189;49.546;7.906;2022-08-19T03:44:07;97787.00;;;19.90
20058;BMP180;10189;49.546;7.906;2022-08-19T03:46:35;97791.00;;;19.90
20058;BMP180;10189;49.546;7.906;2022-08-19T03:49:04;97794.00;;;19.90
20058;BMP180;10189;49.546;7.906;2022-08-19T03:51:38;97789.00;;;20.10
20058;BMP180;10189;49.546;7.906;2022-08-19T03:54:08;97796.00;;;20.10
20058;BMP180;10189;49.546;7.906;2022-08-19T03:56:36;97797.00;;;20.20
20058;BMP180;10189;49.546;7.906;2022-08-19T03:59:05;97797.00;;;20.20
20058;BMP180;10189;49.546;7.906;2022-08-19T04:01:31;97795.00;;;20.20
20058;BMP180;10189;49.546;7.906;2022-08-19T04:03:59;97794.00;;;20.30
20058;BMP180;10189;49.546;7.906;2022-08-19T04:06:30;97799.00;;;20.30
20058;BMP180;10189;49.546;7.906;2022-08-19T04:08:59;97793.00;;;20.30
20058;BMP180;10189;49.546;7.906;2022-08-19T04:11:48;97795.00;;;20.30
20058;BMP180;10189;49.546;7.906;2022-08-19T04:14:20;97798.00;;;20.30
20058;BMP180;10189;49.546;7.906;2022-08-19T04:16:48;97792.00;;;20.20
20058;BMP180;10189;49.546;7.906;2022-08-19T04:19:16;97794.00;;;20.20
20058;BMP180;10189;49.546;7.906;2022-08-19T04:21:47;97798.00;;;20.20
20058;BMP180;10189;49.546;7.906;2022-08-19T04:24:14;97802.00;;;20.10
20058;BMP180;10189;49.546;7.906;2022-08-19T04:26:40;97800.00;;;20.10
20058;BMP180;10189;49.546;7.906;2022-08-19T04:29:11;97798.00;;;20.10
20058;BMP180;10189;49.546;7.906;2022-08-19T04:31:37;97793.00;;;20.00
20058;BMP180;10189;49.546;7.906;2022-08-19T04:34:09;97787.00;;;20.00
20058;BMP180;10189;49.546;7.906;2022-08-19T04:36:41;97786.00;;;20.00
20058;BMP180;10189;49.546;7.906;2022-08-19T04:39:12;97786.00;;;20.00
20058;BMP180;10189;49.546;7.906;2022-08-19T04:41:38;97796.00;;;19.90
20058;BMP180;10189;49.546;7.906;2022-08-19T04:44:23;97788.00;;;19.90
20058;BMP180;10189;49.546;7.906;2022-08-19T04:46:50;97787.00;;;19.90
20058;BMP180;10189;49.546;7.906;2022-08-19T04:49:21;97789.00;;;19.80
20058;BMP180;10189;49.546;7.906;2022-08-19T04:51:49;97791.00;;;19.70
20058;BMP180;10189;49.546;7.906;2022-08-19T04:54:17;97800.00;;;19.70
20058;BMP180;10189;49.546;7.906;2022-08-19T04:56:43;97800.00;;;19.70
20058;BMP180;10189;49.546;7.906;2022-08-19T04:59:10;97792.00;;;19.70
20058;BMP180;10189;49.546;7.906;2022-08-19T05:01:37;97790.00;;;19.70
20058;BMP180;10189;49.546;7.906;2022-08-19T05:04:05;97791.00;;;19.80
20058;BMP180;10189;49.546;7.906;2022-08-19T05:06:34;97781.00;;;19.80
20058;BMP180;10189;49.546;7.906;2022-08-19T05:09:05;97798.00;;;19.90
20058;BMP180;10189;49.546;7.906;2022-08-19T05:11:36;97798.00;;;19.90
20058;BMP180;10189;49.546;7.906;2022-08-19T05:14:06;97804.00;;;19.90
20058;BMP180;10189;49.546;7.906;2022-08-19T05:16:33;97803.00;;;19.90
20058;BMP180;10189;49.546;7.906;2022-08-19T05:18:59;97802.00;;;20.10
20058;BMP180;10189;49.546;7.906;2022-08-19T05:21:44;97791.00;;;20.20
20058;BMP180;10189;49.546;7.906;2022-08-19T05:24:33;97795.00;;;20.30
20058;BMP180;10189;49.546;7.906;2022-08-19T05:27:02;97797.00;;;20.40
20058;BMP180;10189;49.546;7.906;2022-08-19T05:29:30;97810.00;;;20.50
20058;BMP180;10189;49.546;7.906;2022-08-19T05:31:58;97805.00;;;20.70
20058;BMP180;10189;49.546;7.906;2022-08-19T05:34:26;97820.00;;;20.90
20058;BMP180;10189;49.546;7.906;2022-08-19T05:36:58;97817.00;;;21.00
20058;BMP180;10189;49.546;7.906;2022-08-19T05:39:29;97813.00;;;21.10
20058;BMP180;10189;49.546;7.906;2022-08-19T05:42:00;97810.00;;;21.30
20058;BMP180;10189;49.546;7.906;2022-08-19T05:44:28;97803.00;;;21.60
20058;BMP180;10189;49.546;7.906;2022-08-19T05:46:59;97814.00;;;21.70
20058;BMP180;10189;49.546;7.906;2022-08-19T05:49:28;97806.00;;;21.90
20058;BMP180;10189;49.546;7.906;2022-08-19T05:51:54;97824.00;;;21.80
20058;BMP180;10189;49.546;7.906;2022-08-19T05:54:22;97830.00;;;21.70
20058;BMP180;10189;49.546;7.906;2022-08-19T05:56:51;97833.00;;;21.90
20058;BMP180;10189;49.546;7.906;2022-08-19T05:59:20;97837.00;;;22.10
20058;BMP180;10189;49.546;7.906;2022-08-19T06:01:49;97831.00;;;22.20
20058;BMP180;10189;49.546;7.906;2022-08-19T06:04:19;97841.00;;;22.00
20058;BMP180;10189;49.546;7.906;2022-08-19T06:06:47;97846.00;;;21.90
20058;BMP180;10189;49.546;7.906;2022-08-19T06:09:14;97844.00;;;22.30
20058;BMP180;10189;49.546;7.906;2022-08-19T06:11:47;97846.00;;;22.70
20058;BMP180;10189;49.546;7.906;2022-08-19T06:14:20;97860.00;;;22.90
20058;BMP180;10189;49.546;7.906;2022-08-19T06:16:49;97857.00;;;22.70
20058;BMP180;10189;49.546;7.906;2022-08-19T06:19:20;97869.00;;;22.60
20058;BMP180;10189;49.546;7.906;2022-08-19T06:21:50;97873.00;;;22.90
20058;BMP180;10189;49.546;7.906;2022-08-19T06:24:21;97869.00;;;22.80
20058;BMP180;10189;49.546;7.906;2022-08-19T06:26:50;97877.00;;;22.60
20058;BMP180;10189;49.546;7.906;2022-08-19T06:29:22;97889.00;;;22.70
20058;BMP180;10189;49.546;7.906;2022-08-19T06:31:51;97887.00;;;22.50
20058;BMP180;10189;49.546;7.906;2022-08-19T06:34:19;97887.00;;;22.60
20058;BMP180;10189;49.546;7.906;2022-08-19T06:36:49;97890.00;;;22.50
20058;BMP180;10189;49.546;7.906;2022-08-19T06:39:25;97884.00;;;22.50
20058;BMP180;10189;49.546;7.906;2022-08-19T06:41:56;97874.00;;;22.80
20058;BMP180;10189;49.546;7.906;2022-08-19T06:44:26;97874.00;;;23.20
20058;BMP180;10189;49.546;7.906;2022-08-19T06:46:53;97870.00;;;23.60
20058;BMP180;10189;49.546;7.906;2022-08-19T06:49:19;97874.00;;;23.90
20058;BMP180;10189;49.546;7.906;2022-08-19T06:51:48;97875.00;;;24.00
20058;BMP180;10189;49.546;7.906;2022-08-19T06:54:16;97876.00;;;23.90
20058;BMP180;10189;49.546;7.906;2022-08-19T06:56:43;97878.00;;;24.10
20058;BMP180;10189;49.546;7.906;2022-08-19T06:59:16;97874.00;;;24.20
20058;BMP180;10189;49.546;7.906;2022-08-19T07:01:50;97869.00;;;24.20
20058;BMP180;10189;49.546;7.906;2022-08-19T07:04:21;97873.00;;;24.50
20058;BMP180;10189;49.546;7.906;2022-08-19T07:06:49;97876.00;;;24.40
20058;BMP180;10189;49.546;7.906;2022-08-19T07:09:17;97869.00;;;24.30
20058;BMP180;10189;49.546;7.906;2022-08-19T07:11:49;97874.00;;;24.60
20058;BMP180;10189;49.546;7.906;2022-08-19T07:14:19;97867.00;;;24.90
20058;BMP180;10189;49.546;7.906;2022-08-19T07:16:49;97864.00;;;24.80
20058;BMP180;10189;49.546;7.906;2022-08-19T07:19:16;97876.00;;;24.80
20058;BMP180;10189;49.546;7.906;2022-08-19T07:21:43;97867.00;;;24.70
20058;BMP180;10189;49.546;7.906;2022-08-19T07:24:09;97871.00;;;24.60
20058;BMP180;10189;49.546;7.906;2022-08-19T07:26:42;97864.00;;;24.80
20058;BMP180;10189;49.546;7.906;2022-08-19T07:29:10;97879.00;;;24.90
20058;BMP180;10189;49.546;7.906;2022-08-19T07:31:36;97883.00;;;25.10
20058;BMP180;10189;49.546;7.906;2022-08-19T07:34:06;97887.00;;;25.00
20058;BMP180;10189;49.546;7.906;2022-08-19T07:36:36;97889.00;;;24.70
20058;BMP180;10189;49.546;7.906;2022-08-19T07:39:30;97892.00;;;25.10
20058;BMP180;10189;49.546;7.906;2022-08-19T07:41:57;97880.00;;;25.00
20058;BMP180;10189;49.546;7.906;2022-08-19T07:44:24;97874.00;;;25.30
20058;BMP180;10189;49.546;7.906;2022-08-19T07:46:55;97875.00;;;25.90
20058;BMP180;10189;49.546;7.906;2022-08-19T07:49:22;97858.00;;;26.00
20058;BMP180;10189;49.546;7.906;2022-08-19T07:51:53;97872.00;;;25.80
20058;BMP180;10189;49.546;7.906;2022-08-19T07:54:22;97873.00;;;26.20
20058;BMP180;10189;49.546;7.906;2022-08-19T07:56:49;97869.00;;;26.50
20058;BMP180;10189;49.546;7.906;2022-08-19T07:59:17;97878.00;;;26.20
20058;BMP180;10189;49.546;7.906;2022-08-19T08:01:44;97880.00;;;25.80
20058;BMP180;10189;49.546;7.906;2022-08-19T08:04:11;97870.00;;;26.20
20058;BMP180;10189;49.546;7.906;2022-08-19T08:06:55;97888.00;;;26.60
20058;BMP180;10189;49.546;7.906;2022-08-19T08:09:43;97887.00;;;26.80
20058;BMP180;10189;49.546;7.906;2022-08-19T08:12:37;97882.00;;;26.50
20058;BMP180;10189;49.546;7.906;2022-08-19T08:15:13;97880.00;;;26.40
20058;BMP180;10189;49.546;7.906;2022-08-19T08:17:42;97891.00;;;26.00
20058;BMP180;10189;49.546;7.906;2022-08-19T08:20:11;97893.00;;;26.00
20058;BMP180;10189;49.546;7.906;2022-08-19T08:22:37;97894.00;;;26.30
20058;BMP180;10189;49.546;7.906;2022-08-19T08:25:26;97889.00;;;25.80
20058;BMP180;10189;49.546;7.906;2022-08-19T08:27:52;97894.00;;;25.90
20058;BMP180;10189;49.546;7.906;2022-08-19T08:30:26;97899.00;;;25.60
20058;BMP180;10189;49.546;7.906;2022-08-19T08:32:52;97902.00;;;25.50
20058;BMP180;10189;49.546;7.906;2022-08-19T08:35:22;97895.00;;;25.60
20058;BMP180;10189;49.546;7.906;2022-08-19T08:37:51;97896.00;;;25.50
20058;BMP180;10189;49.546;7.906;2022-08-19T08:43:29;97900.00;;;25.90
20058;BMP180;10189;49.546;7.906;2022-08-19T08:46:08;97898.00;;;26.40
20058;BMP180;10189;49.546;7.906;2022-08-19T08:48:59;97896.00;;;26.40
20058;BMP180;10189;49.546;7.906;2022-08-19T08:51:38;97894.00;;;26.20
20058;BMP180;10189;49.546;7.906;2022-08-19T08:54:12;97898.00;;;26.20
20058;BMP180;10189;49.546;7.906;2022-08-19T08:56:41;97911.00;;;25.90
20058;BMP180;10189;49.546;7.906;2022-08-19T08:59:28;97912.00;;;26.00
20058;BMP180;10189;49.546;7.906;2022-08-19T09:01:56;97913.00;;;26.60
20058;BMP180;10189;49.546;7.906;2022-08-19T09:04:22;97915.00;;;26.60
20058;BMP180;10189;49.546;7.906;2022-08-19T09:15:41;97910.00;;;26.50
20058;BMP180;10189;49.546;7.906;2022-08-19T09:18:08;97909.00;;;26.90
20058;BMP180;10189;49.546;7.906;2022-08-19T09:20:34;97909.00;;;26.50
20058;BMP180;10189;49.546;7.906;2022-08-19T09:23:00;97907.00;;;26.60
20058;BMP180;10189;49.546;7.906;2022-08-19T09:25:27;97910.00;;;26.30
20058;BMP180;10189;49.546;7.906;2022-08-19T09:27:54;97915.00;;;26.70
20058;BMP180;10189;49.546;7.906;2022-08-19T09:30:29;97906.00;;;26.70
20058;BMP180;10189;49.546;7.906;2022-08-19T09:32:55;97914.00;;;27.40
20058;BMP180;10189;49.546;7.906;2022-08-19T09:35:25;97908.00;;;27.10
20058;BMP180;10189;49.546;7.906;2022-08-19T09:37:52;97912.00;;;27.00
20058;BMP180;10189;49.546;7.906;2022-08-19T09:40:19;97900.00;;;27.10
20058;BMP180;10189;49.546;7.906;2022-08-19T09:42:46;97896.00;;;27.30
20058;BMP180;10189;49.546;7.906;2022-08-19T09:45:19;97901.00;;;27.20
20058;BMP180;10189;49.546;7.906;2022-08-19T09:47:50;97886.00;;;26.80
20058;BMP180;10189;49.546;7.906;2022-08-19T09:50:18;97889.00;;;27.00
20058;BMP180;10189;49.546;7.906;2022-08-19T09:52:45;97888.00;;;27.30
20058;BMP180;10189;49.546;7.906;2022-08-19T09:55:11;97887.00;;;27.60
20058;BMP180;10189;49.546;7.906;2022-08-19T09:57:38;97876.00;;;27.50
20058;BMP180;10189;49.546;7.906;2022-08-19T10:00:07;97887.00;;;27.80
20058;BMP180;10189;49.546;7.906;2022-08-19T10:02:35;97879.00;;;27.90
20058;BMP180;10189;49.546;7.906;2022-08-19T10:05:01;97884.00;;;27.90
20058;BMP180;10189;49.546;7.906;2022-08-19T10:07:46;97892.00;;;27.10
20058;BMP180;10189;49.546;7.906;2022-08-19T10:10:13;97890.00;;;27.30
20058;BMP180;10189;49.546;7.906;2022-08-19T10:12:39;97880.00;;;27.60
20058;BMP180;10189;49.546;7.906;2022-08-19T10:15:06;97886.00;;;27.70
20058;BMP180;10189;49.546;7.906;2022-08-19T10:17:33;97887.00;;;27.80
20058;BMP180;10189;49.546;7.906;2022-08-19T10:20:01;97883.00;;;27.80
20058;BMP180;10189;49.546;7.906;2022-08-19T10:22:30;97883.00;;;27.50
20058;BMP180;10189;49.546;7.906;2022-08-19T10:24:56;97892.00;;;27.40
20058;BMP180;10189;49.546;7.906;2022-08-19T10:27:22;97887.00;;;27.40
20058;BMP180;10189;49.546;7.906;2022-08-19T10:29:48;97879.00;;;27.70
20058;BMP180;10189;49.546;7.906;2022-08-19T10:32:15;97880.00;;;27.40
20058;BMP180;10189;49.546;7.906;2022-08-19T10:34:41;97882.00;;;27.20
20058;BMP180;10189;49.546;7.906;2022-08-19T10:37:07;97871.00;;;27.20
20058;BMP180;10189;49.546;7.906;2022-08-19T10:39:35;97869.00;;;27.30
20058;BMP180;10189;49.546;7.906;2022-08-19T10:42:06;97874.00;;;27.30
20058;BMP180;10189;49.546;7.906;2022-08-19T10:44:33;97862.00;;;27.50
20058;BMP180;10189;49.546;7.906;2022-08-19T10:47:02;97870.00;;;27.70
20058;BMP180;10189;49.546;7.906;2022-08-19T10:49:28;97878.00;;;27.80
20058;BMP180;10189;49.546;7.906;2022-08-19T10:51:55;97872.00;;;27.90
20058;BMP180;10189;49.546;7.906;2022-08-19T10:54:40;97871.00;;;27.80
20058;BMP180;10189;49.546;7.906;2022-08-19T10:57:25;97868.00;;;28.00
20058;BMP180;10189;49.546;7.906;2022-08-19T10:59:55;97861.00;;;28.20
20058;BMP180;10189;49.546;7.906;2022-08-19T11:02:22;97871.00;;;28.40
20058;BMP180;10189;49.546;7.906;2022-08-19T11:04:48;97873.00;;;28.40
20058;BMP180;10189;49.546;7.906;2022-08-19T11:07:16;97871.00;;;27.80
20058;BMP180;10189;49.546;7.906;2022-08-19T11:09:42;97878.00;;;27.80
20058;BMP180;10189;49.546;7.906;2022-08-19T11:12:10;97865.00;;;28.10
20058;BMP180;10189;49.546;7.906;2022-08-19T11:14:38;97873.00;;;27.70
20058;BMP180;10189;49.546;7.906;2022-08-19T11:17:05;97856.00;;;28.20
20058;BMP180;10189;49.546;7.906;2022-08-19T11:19:32;97848.00;;;28.60
20058;BMP180;10189;49.546;7.906;2022-08-19T11:21:59;97850.00;;;29.00
20058;BMP180;10189;49.546;7.906;2022-08-19T11:24:27;97854.00;;;28.80
20058;BMP180;10189;49.546;7.906;2022-08-19T11:27:00;97854.00;;;28.40
20058;BMP180;10189;49.546;7.906;2022-08-19T11:29:28;97844.00;;;28.20
20058;BMP180;10189;49.546;7.906;2022-08-19T11:31:55;97846.00;;;28.70
20058;BMP180;10189;49.546;7.906;2022-08-19T11:34:25;97844.00;;;28.80
20058;BMP180;10189;49.546;7.906;2022-08-19T11:36:54;97841.00;;;28.60
20058;BMP180;10189;49.546;7.906;2022-08-19T11:39:24;97843.00;;;29.00
20058;BMP180;10189;49.546;7.906;2022-08-19T11:41:51;97844.00;;;29.00
20058;BMP180;10189;49.546;7.906;2022-08-19T11:44:18;97852.00;;;29.10
20058;BMP180;10189;49.546;7.906;2022-08-19T11:46:45;97844.00;;;29.00
20058;BMP180;10189;49.546;7.906;2022-08-19T11:49:14;97844.00;;;29.10
20058;BMP180;10189;49.546;7.906;2022-08-19T11:51:42;97829.00;;;29.30
20058;BMP180;10189;49.546;7.906;2022-08-19T11:54:13;97828.00;;;29.30
20058;BMP180;10189;49.546;7.906;2022-08-19T11:56:40;97843.00;;;29.20
20058;BMP180;10189;49.546;7.906;2022-08-19T11:59:06;97825.00;;;28.70
20058;BMP180;10189;49.546;7.906;2022-08-19T12:01:33;97816.00;;;28.70
20058;BMP180;10189;49.546;7.906;2022-08-19T12:04:00;97819.00;;;28.70
20058;BMP180;10189;49.546;7.906;2022-08-19T12:06:30;97817.00;;;28.90
20058;BMP180;10189;49.546;7.906;2022-08-19T12:09:04;97815.00;;;29.20
20058;BMP180;10189;49.546;7.906;2022-08-19T12:11:31;97807.00;;;29.50
20058;BMP180;10189;49.546;7.906;2022-08-19T12:13:57;97807.00;;;29.40
20058;BMP180;10189;49.546;7.906;2022-08-19T12:16:28;97808.00;;;29.30
20058;BMP180;10189;49.546;7.906;2022-08-19T12:18:56;97799.00;;;29.40
20058;BMP180;10189;49.546;7.906;2022-08-19T12:21:26;97793.00;;;29.40
20058;BMP180;10189;49.546;7.906;2022-08-19T12:23:56;97794.00;;;29.30
20058;BMP180;10189;49.546;7.906;2022-08-19T12:26:24;97792.00;;;29.40
20058;BMP180;10189;49.546;7.906;2022-08-19T12:28:52;97792.00;;;29.60
20058;BMP180;10189;49.546;7.906;2022-08-19T12:31:18;97789.00;;;29.40
20058;BMP180;10189;49.546;7.906;2022-08-19T12:33:46;97797.00;;;29.20
20058;BMP180;10189;49.546;7.906;2022-08-19T12:36:15;97793.00;;;29.30
20058;BMP180;10189;49.546;7.906;2022-08-19T12:38:42;97800.00;;;29.60
20058;BMP180;10189;49.546;7.906;2022-08-19T12:41:12;97811.00;;;30.00
20058;BMP180;10189;49.546;7.906;2022-08-19T12:43:39;97800.00;;;29.80
20058;BMP180;10189;49.546;7.906;2022-08-19T12:46:05;97800.00;;;30.20
20058;BMP180;10189;49.546;7.906;2022-08-19T12:48:32;97794.00;;;30.20
20058;BMP180;10189;49.546;7.906;2022-08-19T12:50:59;97796.00;;;30.20
20058;BMP180;10189;49.546;7.906;2022-08-19T12:53:25;97800.00;;;30.10
20058;BMP180;10189;49.546;7.906;2022-08-19T12:55:57;97800.00;;;30.00
20058;BMP180;10189;49.546;7.906;2022-08-19T12:58:23;97798.00;;;30.10
20058;BMP180;10189;49.546;7.906;2022-08-19T13:00:49;97785.00;;;30.60
20058;BMP180;10189;49.546;7.906;2022-08-19T13:03:15;97792.00;;;30.80
20058;BMP180;10189;49.546;7.906;2022-08-19T13:05:41;97795.00;;;30.90
20058;BMP180;10189;49.546;7.906;2022-08-19T13:08:08;97791.00;;;31.20
20058;BMP180;10189;49.546;7.906;2022-08-19T13:10:36;97794.00;;;30.90
20058;BMP180;10189;49.546;7.906;2022-08-19T13:13:06;97791.00;;;30.40
20058;BMP180;10189;49.546;7.906;2022-08-19T13:15:34;97801.00;;;30.30
20058;BMP180;10189;49.546;7.906;2022-08-19T13:18:01;97799.00;;;30.50
20058;BMP180;10189;49.546;7.906;2022-08-19T13:20:27;97804.00;;;30.40
20058;BMP180;10189;49.546;7.906;2022-08-19T13:22:54;97802.00;;;30.60
20058;BMP180;10189;49.546;7.906;2022-08-19T13:25:20;97803.00;;;31.00
20058;BMP180;10189;49.546;7.906;2022-08-19T13:27:49;97814.00;;;30.40
20058;BMP180;10189;49.546;7.906;2022-08-19T13:30:18;97813.00;;;30.80
20058;BMP180;10189;49.546;7.906;2022-08-19T13:33:04;97812.00;;;30.40
20058;BMP180;10189;49.546;7.906;2022-08-19T13:35:56;97808.00;;;30.50
20058;BMP180;10189;49.546;7.906;2022-08-19T13:38:23;97808.00;;;29.90
20058;BMP180;10189;49.546;7.906;2022-08-19T13:40:53;97813.00;;;29.80
20058;BMP180;10189;49.546;7.906;2022-08-19T13:43:22;97802.00;;;29.90
20058;BMP180;10189;49.546;7.906;2022-08-19T13:45:51;97811.00;;;29.70
20058;BMP180;10189;49.546;7.906;2022-08-19T13:48:19;97815.00;;;29.50
20058;BMP180;10189;49.546;7.906;2022-08-19T13:50:45;97809.00;;;29.70
20058;BMP180;10189;49.546;7.906;2022-08-19T13:53:14;97806.00;;;29.90
20058;BMP180;10189;49.546;7.906;2022-08-19T13:55:43;97809.00;;;29.70
20058;BMP180;10189;49.546;7.906;2022-08-19T13:58:11;97800.00;;;29.80
20058;BMP180;10189;49.546;7.906;2022-08-19T14:00:42;97807.00;;;30.20
20058;BMP180;10189;49.546;7.906;2022-08-19T14:03:08;97815.00;;;30.30
20058;BMP180;10189;49.546;7.906;2022-08-19T14:05:37;97811.00;;;30.20
20058;BMP180;10189;49.546;7.906;2022-08-19T14:08:03;97812.00;;;29.80
20058;BMP180;10189;49.546;7.906;2022-08-19T14:10:29;97823.00;;;29.50
20058;BMP180;10189;49.546;7.906;2022-08-19T14:13:01;97817.00;;;29.30
20058;BMP180;10189;49.546;7.906;2022-08-19T14:15:29;97820.00;;;28.90
20058;BMP180;10189;49.546;7.906;2022-08-19T14:17:55;97820.00;;;28.90
20058;BMP180;10189;49.546;7.906;2022-08-19T14:20:23;97815.00;;;29.20
20058;BMP180;10189;49.546;7.906;2022-08-19T14:22:49;97811.00;;;29.30
20058;BMP180;10189;49.546;7.906;2022-08-19T14:25:20;97824.00;;;29.60
20058;BMP180;10189;49.546;7.906;2022-08-19T14:27:47;97822.00;;;29.70
20058;BMP180;10189;49.546;7.906;2022-08-19T14:30:19;97807.00;;;29.90
20058;BMP180;10189;49.546;7.906;2022-08-19T14:32:46;97809.00;;;30.10
20058;BMP180;10189;49.546;7.906;2022-08-19T14:35:15;97818.00;;;30.00